createdAt,value
2019-03-17T00:00:16.761Z,8.47
2019-03-17T00:02:45.387Z,8.43
2019-03-17T00:05:14.234Z,7.97
2019-03-17T00:07:42.864Z,7.80
2019-03-17T00:10:11.501Z,9.63
2019-03-17T00:12:40.098Z,9.50
2019-03-17T00:15:08.936Z,8.87
2019-03-17T00:17:37.526Z,8.23
2019-03-17T00:20:07.414Z,6.47
2019-03-17T00:22:36.036Z,7.10
2019-03-17T00:25:09.583Z,6.33
2019-03-17T00:27:36.063Z,6.17
2019-03-17T00:30:07.232Z,4.93
2019-03-17T00:32:35.917Z,5.77
2019-03-17T00:35:05.629Z,6.00
2019-03-17T00:37:34.230Z,4.93
2019-03-17T00:40:02.858Z,5.27
2019-03-17T00:42:31.384Z,4.30
2019-03-17T00:44:59.945Z,5.73
2019-03-17T00:47:28.672Z,4.40
2019-03-17T00:49:57.272Z,5.23
2019-03-17T00:52:25.761Z,5.40
2019-03-17T00:54:54.371Z,5.30
2019-03-17T00:57:22.929Z,4.30
2019-03-17T00:59:51.485Z,4.07
2019-03-17T01:02:20.118Z,4.70
2019-03-17T01:04:56.059Z,3.77
2019-03-17T01:07:19.053Z,3.57
2019-03-17T01:09:47.651Z,3.63
2019-03-17T01:12:16.272Z,4.03
2019-03-17T01:14:44.834Z,3.60
2019-03-17T01:17:13.499Z,3.43
2019-03-17T01:19:42.027Z,4.17
2019-03-17T01:22:10.650Z,4.40
2019-03-17T01:24:39.129Z,4.27
2019-03-17T01:27:07.805Z,3.40
2019-03-17T01:29:36.406Z,4.10
2019-03-17T01:32:05.018Z,4.07
2019-03-17T01:34:33.571Z,3.90
2019-03-17T01:37:02.107Z,3.77
2019-03-17T01:39:30.653Z,3.47
2019-03-17T01:41:59.185Z,3.30
2019-03-17T01:44:27.739Z,3.27
2019-03-17T01:46:56.409Z,3.00
2019-03-17T01:49:24.952Z,2.90
2019-03-17T01:51:53.614Z,3.33
2019-03-17T01:54:22.099Z,3.37
2019-03-17T01:56:50.703Z,3.83
2019-03-17T01:59:19.301Z,4.33
2019-03-17T02:01:47.920Z,6.00
2019-03-17T02:04:16.597Z,7.70
2019-03-17T02:06:45.150Z,9.30
2019-03-17T02:09:13.712Z,8.73
2019-03-17T02:11:42.342Z,8.57
2019-03-17T02:14:10.951Z,9.13
2019-03-17T02:16:39.439Z,9.13
2019-03-17T02:19:08.075Z,6.33
2019-03-17T02:21:36.750Z,7.10
2019-03-17T02:24:05.381Z,5.60
2019-03-17T02:26:33.931Z,5.17
2019-03-17T02:29:02.486Z,4.90
2019-03-17T02:31:31.026Z,5.97
2019-03-17T02:33:59.690Z,5.10
2019-03-17T02:36:30.049Z,5.10
2019-03-17T02:38:59.074Z,4.50
2019-03-17T02:41:27.589Z,4.00
2019-03-17T02:43:56.168Z,3.53
2019-03-17T02:46:24.774Z,4.40
2019-03-17T02:48:53.381Z,3.50
2019-03-17T02:51:21.992Z,4.73
2019-03-17T02:53:50.560Z,6.10
2019-03-17T02:56:19.184Z,6.20
2019-03-17T02:58:47.778Z,7.37
2019-03-17T03:01:16.413Z,12.37
2019-03-17T03:03:45.082Z,12.53
2019-03-17T03:06:13.688Z,10.43
2019-03-17T03:08:42.310Z,13.87
2019-03-17T03:11:10.897Z,12.93
2019-03-17T03:13:39.500Z,15.40
2019-03-17T03:16:08.171Z,16.47
2019-03-17T03:18:36.845Z,15.53
2019-03-17T03:21:05.336Z,15.47
2019-03-17T03:23:33.835Z,16.10
2019-03-17T03:26:02.467Z,14.67
2019-03-17T03:28:31.148Z,15.97
2019-03-17T03:30:59.728Z,15.27
2019-03-17T03:33:28.201Z,19.47
2019-03-17T03:36:10.205Z,17.03
2019-03-17T03:38:27.101Z,16.00
2019-03-17T03:40:55.709Z,13.53
2019-03-17T03:43:24.337Z,12.97
2019-03-17T03:45:52.982Z,14.13
2019-03-17T03:48:21.607Z,13.63
2019-03-17T03:50:50.278Z,13.03
2019-03-17T03:53:18.839Z,11.00
2019-03-17T03:55:47.474Z,12.03
2019-03-17T03:58:16.147Z,12.13
2019-03-17T04:00:44.785Z,12.17
2019-03-17T04:03:14.028Z,12.67
2019-03-17T04:05:42.992Z,12.07
2019-03-17T04:08:11.550Z,15.30
2019-03-17T04:10:40.095Z,11.83
2019-03-17T04:13:08.653Z,10.43
2019-03-17T04:15:37.352Z,9.83
2019-03-17T04:18:05.969Z,6.23
2019-03-17T04:20:34.646Z,5.87
2019-03-17T04:23:03.264Z,5.23
2019-03-17T04:25:31.830Z,4.40
2019-03-17T04:28:00.451Z,4.13
2019-03-17T04:30:29.050Z,4.07
2019-03-17T04:32:57.710Z,4.60
2019-03-17T04:35:26.252Z,3.40
2019-03-17T04:37:54.973Z,3.67
2019-03-17T04:40:23.466Z,4.07
2019-03-17T04:42:51.931Z,3.90
2019-03-17T04:45:20.487Z,3.67
2019-03-17T04:47:49.038Z,3.53
2019-03-17T04:50:17.638Z,3.73
2019-03-17T04:52:46.206Z,3.13
2019-03-17T04:55:14.743Z,3.60
2019-03-17T04:57:43.244Z,3.13
2019-03-17T05:00:13.123Z,3.67
2019-03-17T05:02:41.738Z,3.53
2019-03-17T05:05:10.359Z,4.50
2019-03-17T05:07:39.033Z,4.37
2019-03-17T05:10:09.571Z,4.50
2019-03-17T05:12:38.282Z,4.40
2019-03-17T05:15:09.501Z,3.73
2019-03-17T05:17:37.982Z,3.37
2019-03-17T05:20:09.154Z,3.50
2019-03-17T05:22:37.752Z,3.60
2019-03-17T05:25:07.577Z,3.23
2019-03-17T05:27:36.248Z,4.10
2019-03-17T05:30:07.618Z,3.70
2019-03-17T05:32:36.239Z,3.57
2019-03-17T05:35:06.525Z,3.50
2019-03-17T05:37:35.151Z,2.50
2019-03-17T05:40:05.116Z,3.10
2019-03-17T05:42:33.602Z,2.87
2019-03-17T05:45:02.195Z,2.63
2019-03-17T05:47:30.740Z,2.40
2019-03-17T05:49:59.219Z,2.70
2019-03-17T05:52:27.785Z,2.43
2019-03-17T05:54:56.349Z,2.90
2019-03-17T05:57:24.979Z,2.20
2019-03-17T05:59:53.608Z,2.17
2019-03-17T06:02:22.243Z,2.07
2019-03-17T06:04:50.891Z,2.00
2019-03-17T06:07:19.449Z,3.20
2019-03-17T06:09:48.024Z,2.47
2019-03-17T06:12:16.505Z,2.73
2019-03-17T06:14:45.070Z,2.30
2019-03-17T06:17:13.738Z,2.23
2019-03-17T06:19:42.285Z,3.53
2019-03-17T06:22:10.933Z,3.83
2019-03-17T06:24:39.454Z,4.43
2019-03-17T06:27:08.027Z,4.80
2019-03-17T06:29:36.605Z,4.57
2019-03-17T06:32:05.260Z,5.17
2019-03-17T06:34:33.882Z,4.00
2019-03-17T06:37:02.405Z,4.23
2019-03-17T06:39:31.029Z,4.47
2019-03-17T06:41:59.606Z,3.73
2019-03-17T06:44:28.273Z,4.33
2019-03-17T06:46:57.721Z,4.63
2019-03-17T06:49:26.327Z,4.67
2019-03-17T06:51:54.995Z,3.97
2019-03-17T06:54:23.562Z,3.30
2019-03-17T06:56:52.050Z,3.80
2019-03-17T06:59:20.612Z,2.63
2019-03-17T07:01:49.110Z,3.00
2019-03-17T07:04:17.688Z,2.90
2019-03-17T07:06:46.247Z,3.70
2019-03-17T07:09:14.750Z,2.53
2019-03-17T07:11:43.358Z,2.67
2019-03-17T07:14:11.999Z,2.43
2019-03-17T07:16:40.670Z,2.40
2019-03-17T07:19:09.211Z,2.30
2019-03-17T07:21:37.883Z,2.70
2019-03-17T07:24:06.448Z,2.10
2019-03-17T07:26:37.889Z,2.53
2019-03-17T07:29:06.446Z,2.10
2019-03-17T07:31:35.103Z,2.23
2019-03-17T07:34:03.649Z,2.20
2019-03-17T07:36:32.195Z,2.57
2019-03-17T07:39:11.098Z,2.30
2019-03-17T07:41:31.075Z,2.00
2019-03-17T07:43:59.643Z,2.33
2019-03-17T07:46:28.127Z,2.33
2019-03-17T07:48:56.654Z,2.40
2019-03-17T07:51:25.207Z,2.77
2019-03-17T07:53:53.757Z,2.63
2019-03-17T07:56:22.379Z,1.90
2019-03-17T07:58:50.923Z,2.23
2019-03-17T08:01:19.451Z,2.20
2019-03-17T08:03:48.075Z,1.83
2019-03-17T08:06:16.666Z,2.30
2019-03-17T08:08:45.205Z,1.80
2019-03-17T08:11:13.964Z,1.55
2019-03-17T08:13:42.563Z,1.82
2019-03-17T08:16:11.119Z,1.50
2019-03-17T08:18:39.668Z,1.55
2019-03-17T08:21:08.198Z,1.72
2019-03-17T08:23:36.748Z,1.57
2019-03-17T08:26:05.423Z,1.50
2019-03-17T08:28:33.921Z,1.50
2019-03-17T08:31:02.405Z,1.55
2019-03-17T08:33:30.956Z,1.90
2019-03-17T08:35:59.678Z,2.20
2019-03-17T08:38:28.185Z,1.25
2019-03-17T08:40:56.778Z,1.85
2019-03-17T08:43:25.396Z,1.50
2019-03-17T08:45:53.957Z,1.55
2019-03-17T08:48:22.623Z,1.45
2019-03-17T08:50:51.184Z,1.52
2019-03-17T08:53:19.679Z,1.50
2019-03-17T08:55:48.158Z,1.87
2019-03-17T08:58:16.788Z,1.90
2019-03-17T09:00:45.411Z,1.27
2019-03-17T09:03:13.902Z,1.60
2019-03-17T09:05:42.589Z,2.05
2019-03-17T09:08:11.143Z,2.37
2019-03-17T09:10:39.791Z,2.10
2019-03-17T09:13:08.271Z,2.00
2019-03-17T09:15:36.824Z,3.02
2019-03-17T09:18:05.456Z,2.95
2019-03-17T09:20:33.938Z,3.60
2019-03-17T09:23:02.611Z,3.42
2019-03-17T09:25:31.177Z,3.62
2019-03-17T09:27:59.779Z,4.65
2019-03-17T09:30:28.451Z,4.08
2019-03-17T09:32:57.048Z,3.52
2019-03-17T09:35:25.610Z,3.85
2019-03-17T09:37:54.143Z,4.58
2019-03-17T09:40:22.746Z,4.30
2019-03-17T09:42:51.294Z,3.80
2019-03-17T09:45:19.864Z,4.65
2019-03-17T09:47:48.533Z,4.30
2019-03-17T09:50:20.642Z,3.60
2019-03-17T09:52:49.306Z,2.90
2019-03-17T09:55:18.077Z,2.40
2019-03-17T09:57:46.709Z,1.80
2019-03-17T10:00:16.477Z,1.50
2019-03-17T10:02:45.202Z,1.32
2019-03-17T10:05:13.967Z,1.72
2019-03-17T10:07:42.586Z,1.00
2019-03-17T10:10:15.501Z,1.42
2019-03-17T10:12:44.227Z,1.30
2019-03-17T10:15:14.656Z,1.30
2019-03-17T10:17:43.294Z,1.07
2019-03-17T10:20:22.136Z,0.90
2019-03-17T10:22:50.798Z,1.00
2019-03-17T10:25:19.424Z,1.02
2019-03-17T10:27:48.021Z,1.42
2019-03-17T10:30:18.658Z,1.82
2019-03-17T10:32:47.283Z,1.10
2019-03-17T10:35:15.931Z,3.72
2019-03-17T10:37:44.564Z,2.42
2019-03-17T10:40:15.304Z,2.40
2019-03-17T10:42:43.936Z,2.05
2019-03-17T10:45:13.368Z,2.45
2019-03-17T10:47:41.990Z,2.15
2019-03-17T10:50:17.535Z,1.87
2019-03-17T10:52:46.132Z,1.50
2019-03-17T10:55:14.759Z,1.47
2019-03-17T10:57:43.386Z,1.80
2019-03-17T11:00:14.661Z,2.27
2019-03-17T11:02:43.333Z,1.60
2019-03-17T11:05:11.966Z,1.35
2019-03-17T11:07:40.637Z,1.02
2019-03-17T11:10:10.972Z,1.37
2019-03-17T11:12:39.574Z,1.37
2019-03-17T11:15:14.164Z,1.15
2019-03-17T11:17:42.839Z,0.80
2019-03-17T11:20:12.860Z,0.90
2019-03-17T11:22:41.485Z,1.35
2019-03-17T11:25:11.940Z,1.20
2019-03-17T11:27:40.625Z,1.20
2019-03-17T11:30:12.209Z,1.35
2019-03-17T11:32:42.295Z,1.72
2019-03-17T11:35:12.399Z,1.47
2019-03-17T11:37:41.019Z,1.10
2019-03-17T11:40:19.416Z,0.82
2019-03-17T11:42:50.197Z,1.05
2019-03-17T11:45:18.734Z,0.80
2019-03-17T11:47:47.459Z,0.80
2019-03-17T11:50:20.212Z,0.70
2019-03-17T11:52:48.933Z,0.90
2019-03-17T11:55:17.798Z,0.85
2019-03-17T11:57:46.631Z,1.00
2019-03-17T12:00:17.167Z,1.10
2019-03-17T12:02:45.802Z,1.37
2019-03-17T12:05:14.448Z,1.12
2019-03-17T12:07:43.084Z,1.10
2019-03-17T12:10:16.170Z,1.17
2019-03-17T12:12:44.795Z,0.95
2019-03-17T12:15:24.644Z,0.95
2019-03-17T12:17:53.265Z,1.00
2019-03-17T12:20:21.906Z,1.02
2019-03-17T12:22:50.531Z,1.17
2019-03-17T12:25:19.774Z,1.20
2019-03-17T12:27:48.525Z,1.32
2019-03-17T12:30:22.224Z,1.00
2019-03-17T12:32:51.904Z,1.20
2019-03-17T12:35:20.577Z,0.80
2019-03-17T12:37:49.524Z,0.80
2019-03-17T12:40:18.167Z,1.20
2019-03-17T12:42:46.819Z,1.10
2019-03-17T12:45:15.459Z,27.93
2019-03-17T12:47:44.071Z,1.70
2019-03-17T12:50:20.359Z,1.10
2019-03-17T12:52:48.952Z,0.95
2019-03-17T12:55:17.605Z,1.05
2019-03-17T12:57:46.294Z,0.90
2019-03-17T13:00:16.982Z,1.17
2019-03-17T13:02:45.599Z,0.88
2019-03-17T13:05:14.572Z,0.90
2019-03-17T13:07:43.254Z,1.02
2019-03-17T13:10:15.934Z,1.00
2019-03-17T13:12:44.606Z,0.90
2019-03-17T13:15:13.686Z,0.70
2019-03-17T13:17:42.391Z,0.70
2019-03-17T13:20:21.484Z,0.60
2019-03-17T13:22:50.105Z,0.90
2019-03-17T13:25:18.846Z,0.78
2019-03-17T13:27:47.504Z,0.80
2019-03-17T13:30:17.123Z,0.80
2019-03-17T13:32:45.734Z,0.70
2019-03-17T13:35:14.456Z,0.80
2019-03-17T13:37:43.086Z,0.98
2019-03-17T13:40:28.368Z,1.15
2019-03-17T13:42:46.753Z,0.78
2019-03-17T13:45:15.526Z,1.40
2019-03-17T13:47:44.153Z,0.70
2019-03-17T13:50:19.940Z,0.93
2019-03-17T13:52:48.672Z,1.40
2019-03-17T13:55:17.354Z,1.35
2019-03-17T13:57:48.917Z,1.47
2019-03-17T14:00:17.480Z,1.60
2019-03-17T14:02:45.981Z,2.02
2019-03-17T14:05:14.837Z,2.10
2019-03-17T14:07:43.450Z,1.85
2019-03-17T14:10:14.771Z,3.50
2019-03-17T14:12:43.594Z,1.50
2019-03-17T14:15:14.030Z,1.75
2019-03-17T14:17:42.628Z,1.37
2019-03-17T14:20:13.829Z,1.90
2019-03-17T14:22:42.446Z,1.55
2019-03-17T14:25:19.779Z,1.60
2019-03-17T14:27:48.293Z,1.02
2019-03-17T14:30:17.671Z,1.92
2019-03-17T14:32:46.227Z,1.30
2019-03-17T14:35:14.857Z,1.82
2019-03-17T14:37:43.525Z,1.67
2019-03-17T14:40:16.280Z,1.80
2019-03-17T14:42:47.832Z,2.00
2019-03-17T14:45:17.771Z,2.27
2019-03-17T14:47:46.514Z,6.55
2019-03-17T14:50:17.608Z,1.75
2019-03-17T14:52:46.238Z,1.80
2019-03-17T14:55:14.857Z,0.98
2019-03-17T14:57:43.493Z,1.60
2019-03-17T15:00:20.585Z,2.10
2019-03-17T15:02:49.332Z,1.20
2019-03-17T15:05:17.959Z,0.98
2019-03-17T15:07:47.141Z,1.20
2019-03-17T15:10:25.952Z,2.02
2019-03-17T15:12:57.211Z,2.52
2019-03-17T15:15:25.831Z,2.15
2019-03-17T15:17:54.467Z,1.77
2019-03-17T15:20:27.824Z,2.05
2019-03-17T15:22:56.455Z,2.08
2019-03-17T15:25:25.131Z,3.55
2019-03-17T15:27:53.680Z,2.27
2019-03-17T15:30:29.325Z,2.00
2019-03-17T15:32:57.962Z,2.12
2019-03-17T15:35:26.583Z,2.35
2019-03-17T15:37:55.250Z,2.70
2019-03-17T15:40:23.881Z,2.60
2019-03-17T15:42:52.483Z,2.58
2019-03-17T15:45:27.043Z,2.87
2019-03-17T15:47:55.669Z,2.80
2019-03-17T15:50:25.553Z,3.67
2019-03-17T15:52:54.187Z,3.30
2019-03-17T15:55:22.792Z,3.02
2019-03-17T15:57:51.417Z,3.72
2019-03-17T16:00:26.267Z,3.60
2019-03-17T16:02:53.958Z,4.12
2019-03-17T16:05:22.581Z,3.75
2019-03-17T16:07:51.274Z,4.87
2019-03-17T16:10:24.976Z,4.62
2019-03-17T16:12:53.578Z,4.85
2019-03-17T16:15:22.205Z,5.58
2019-03-17T16:17:50.814Z,3.80
2019-03-17T16:20:20.834Z,4.60
2019-03-17T16:22:49.513Z,3.80
2019-03-17T16:25:33.221Z,4.67
2019-03-17T16:28:01.858Z,5.55
2019-03-17T16:30:31.691Z,6.90
2019-03-17T16:33:00.553Z,8.47
2019-03-17T16:35:29.241Z,9.58
2019-03-17T16:37:57.873Z,10.53
2019-03-17T16:40:33.484Z,5.97
2019-03-17T16:43:02.054Z,5.87
2019-03-17T16:45:30.668Z,5.40
2019-03-17T16:47:59.309Z,3.97
2019-03-17T16:50:27.934Z,4.43
2019-03-17T16:52:56.605Z,5.50
2019-03-17T16:55:25.192Z,6.27
2019-03-17T16:57:53.735Z,7.40
2019-03-17T17:00:23.462Z,5.93
2019-03-17T17:02:52.078Z,5.40
2019-03-17T17:05:21.615Z,4.87
2019-03-17T17:07:50.243Z,4.00
2019-03-17T17:10:21.111Z,3.67
2019-03-17T17:12:49.774Z,4.40
2019-03-17T17:15:20.937Z,4.23
2019-03-17T17:17:49.675Z,6.00
2019-03-17T17:20:21.020Z,10.67
2019-03-17T17:22:49.643Z,7.80
2019-03-17T17:25:18.265Z,5.07
2019-03-17T17:27:46.827Z,6.03
2019-03-17T17:30:17.429Z,8.70
2019-03-17T17:32:45.963Z,7.87
2019-03-17T17:35:14.598Z,8.67
2019-03-17T17:37:43.270Z,8.37
2019-03-17T17:40:20.358Z,7.03
2019-03-17T17:42:49.033Z,22.13
2019-03-17T17:45:19.928Z,14.53
2019-03-17T17:47:48.640Z,13.80
2019-03-17T17:50:27.864Z,15.03
2019-03-17T17:52:56.577Z,15.83
2019-03-17T17:55:25.290Z,14.77
2019-03-17T17:57:53.952Z,13.37
2019-03-17T18:00:36.616Z,10.87
2019-03-17T18:03:05.556Z,11.03
2019-03-17T18:05:34.218Z,12.97
2019-03-17T18:08:02.857Z,10.80
2019-03-17T18:10:31.531Z,10.27
2019-03-17T18:13:00.162Z,10.90
2019-03-17T18:15:30.304Z,11.47
2019-03-17T18:17:59.027Z,11.37
2019-03-17T18:20:27.615Z,15.67
2019-03-17T18:22:56.283Z,15.07
2019-03-17T18:25:26.007Z,16.00
2019-03-17T18:27:54.683Z,16.93
2019-03-17T18:30:27.356Z,14.33
2019-03-17T18:32:56.000Z,16.60
2019-03-17T18:35:24.669Z,15.80
2019-03-17T18:37:53.215Z,11.17
2019-03-17T18:40:25.038Z,8.83
2019-03-17T18:42:53.661Z,8.33
2019-03-17T18:45:29.263Z,7.17
2019-03-17T18:47:58.418Z,5.97
2019-03-17T18:50:29.592Z,5.17
2019-03-17T18:52:58.139Z,5.20
2019-03-17T18:55:26.829Z,4.43
2019-03-17T18:57:55.617Z,4.17
2019-03-17T19:00:25.265Z,4.53
2019-03-17T19:02:53.873Z,3.90
2019-03-17T19:05:22.642Z,5.67
2019-03-17T19:07:51.126Z,5.60
2019-03-17T19:10:23.470Z,6.97
2019-03-17T19:12:55.058Z,6.83
2019-03-17T19:15:24.103Z,16.20
2019-03-17T19:17:52.727Z,23.40
2019-03-17T19:20:22.075Z,11.17
2019-03-17T19:22:50.724Z,7.50
2019-03-17T19:25:21.300Z,7.17
2019-03-17T19:27:49.939Z,6.93
2019-03-17T19:30:19.566Z,7.47
2019-03-17T19:32:48.199Z,8.47
2019-03-17T19:35:19.931Z,9.10
2019-03-17T19:37:48.516Z,11.07
2019-03-17T19:40:22.404Z,11.67
2019-03-17T19:42:58.472Z,8.17
2019-03-17T19:45:21.427Z,7.90
2019-03-17T19:47:50.129Z,10.10
2019-03-17T19:50:23.351Z,10.20
2019-03-17T19:52:52.132Z,12.10
2019-03-17T19:55:20.805Z,11.70
2019-03-17T19:57:49.446Z,9.23
2019-03-17T20:00:22.643Z,9.63
2019-03-17T20:02:51.261Z,11.10
2019-03-17T20:05:19.894Z,11.17
2019-03-17T20:07:48.565Z,10.07
2019-03-17T20:10:25.920Z,11.00
2019-03-17T20:12:54.599Z,10.40
2019-03-17T20:15:23.239Z,10.00
2019-03-17T20:17:51.905Z,11.93
2019-03-17T20:20:20.461Z,11.07
2019-03-17T20:22:49.141Z,11.07
2019-03-17T20:25:17.762Z,11.80
2019-03-17T20:27:46.415Z,12.93
2019-03-17T20:30:16.392Z,12.90
2019-03-17T20:32:45.036Z,12.07
2019-03-17T20:35:14.170Z,11.40
2019-03-17T20:37:42.797Z,11.77
2019-03-17T20:40:13.656Z,12.50
2019-03-17T20:42:42.285Z,11.70
2019-03-17T20:45:12.382Z,14.47
2019-03-17T20:47:40.938Z,15.73
2019-03-17T20:50:20.094Z,10.03
2019-03-17T20:52:48.700Z,8.30
2019-03-17T20:55:17.324Z,8.53
2019-03-17T20:57:45.856Z,8.27
2019-03-17T21:00:18.239Z,9.73
2019-03-17T21:02:46.821Z,9.60
2019-03-17T21:05:15.499Z,10.57
2019-03-17T21:07:44.218Z,9.97
2019-03-17T21:10:14.150Z,12.27
2019-03-17T21:12:42.818Z,12.20
2019-03-17T21:15:12.844Z,10.90
2019-03-17T21:17:41.524Z,10.30
2019-03-17T21:20:21.600Z,10.37
2019-03-17T21:22:50.244Z,10.33
2019-03-17T21:25:18.799Z,9.83
2019-03-17T21:27:47.440Z,9.70
2019-03-17T21:30:21.477Z,10.10
2019-03-17T21:32:50.142Z,9.63
2019-03-17T21:35:18.862Z,10.93
2019-03-17T21:37:47.495Z,10.93
2019-03-17T21:40:16.161Z,10.33
2019-03-17T21:42:44.844Z,11.20
2019-03-17T21:45:14.172Z,11.63
2019-03-17T21:47:42.909Z,11.43
2019-03-17T21:50:14.390Z,16.53
2019-03-17T21:52:42.982Z,12.20
2019-03-17T21:55:12.655Z,10.97
2019-03-17T21:57:41.385Z,11.40
2019-03-17T22:00:17.716Z,12.00
2019-03-17T22:02:46.352Z,14.37
2019-03-17T22:05:15.487Z,13.67
2019-03-17T22:07:50.612Z,14.97
2019-03-17T22:10:18.908Z,14.70
2019-03-17T22:12:47.539Z,13.40
2019-03-17T22:15:16.985Z,13.20
2019-03-17T22:17:45.619Z,13.20
2019-03-17T22:20:15.053Z,15.93
2019-03-17T22:22:43.685Z,16.57
2019-03-17T22:25:13.418Z,19.33
2019-03-17T22:27:42.055Z,20.33
2019-03-17T22:30:18.562Z,22.03
2019-03-17T22:32:47.206Z,21.67
2019-03-17T22:35:15.843Z,21.03
2019-03-17T22:37:44.397Z,20.83
2019-03-17T22:40:15.951Z,21.77
2019-03-17T22:42:44.629Z,21.87
2019-03-17T22:45:14.161Z,20.60
2019-03-17T22:47:42.830Z,23.20
2019-03-17T22:50:16.244Z,23.93
2019-03-17T22:52:44.876Z,25.07
2019-03-17T22:55:13.708Z,26.03
2019-03-17T22:57:42.345Z,25.67
2019-03-17T23:00:35.322Z,26.30
2019-03-17T23:03:04.359Z,26.23
2019-03-17T23:05:32.984Z,26.60
2019-03-17T23:08:01.630Z,25.83
2019-03-17T23:10:30.163Z,20.53
2019-03-17T23:12:59.184Z,22.77
2019-03-17T23:15:27.862Z,23.03
2019-03-17T23:17:56.490Z,22.73
2019-03-17T23:20:25.181Z,23.63
2019-03-17T23:22:53.755Z,22.23
2019-03-17T23:25:22.347Z,22.50
2019-03-17T23:27:50.972Z,20.90
2019-03-17T23:30:20.660Z,22.10
2019-03-17T23:32:49.728Z,22.63
2019-03-17T23:35:18.500Z,22.40
2019-03-17T23:37:47.187Z,22.80
2019-03-17T23:40:16.943Z,23.27
2019-03-17T23:42:45.585Z,23.20
2019-03-17T23:45:14.420Z,28.17
2019-03-17T23:47:43.195Z,25.87
2019-03-17T23:50:15.474Z,24.87
2019-03-17T23:52:44.103Z,25.20
2019-03-17T23:55:15.876Z,23.03
2019-03-17T23:57:44.569Z,21.17
